createdAt,value
2023-12-24T08:44:56.096Z,7.13
2023-12-24T09:00:01.686Z,7.25
2023-12-24T09:15:08.312Z,7.94
2023-12-24T09:30:15.324Z,8.75
2023-12-24T09:45:21.231Z,9.19
2023-12-24T10:00:26.981Z,8.75
2023-12-24T10:15:34.103Z,8.56
2023-12-24T10:30:39.986Z,8.50
2023-12-24T10:45:46.725Z,8.56
2023-12-24T11:00:52.603Z,8.38
2023-12-24T11:15:58.283Z,8.38
2023-12-24T11:31:08.263Z,8.44
2023-12-24T11:46:13.642Z,8.50
2023-12-24T12:01:23.662Z,8.63
2023-12-24T12:16:30.451Z,8.50
2023-12-24T12:31:35.981Z,8.44
2023-12-24T12:46:41.751Z,8.38
2023-12-24T13:01:47.449Z,8.38
2023-12-24T13:16:52.904Z,8.38
2023-12-24T13:31:58.485Z,8.44
2023-12-24T13:47:03.844Z,8.44
2023-12-24T14:02:10.432Z,8.56
2023-12-24T14:17:16.074Z,8.44
2023-12-24T14:32:21.998Z,8.56
2023-12-24T14:47:31.314Z,8.44
2023-12-24T15:02:37.311Z,8.44
2023-12-24T15:17:43.083Z,8.44
2023-12-24T15:32:49.147Z,8.50
2023-12-24T15:47:55.117Z,8.44
2023-12-24T16:03:00.999Z,8.38
2023-12-24T16:18:07.599Z,8.44
2023-12-24T16:33:13.284Z,8.38
2023-12-24T16:48:19.173Z,8.44
2023-12-24T17:03:24.836Z,8.50
2023-12-24T17:18:31.133Z,8.50
2023-12-24T17:33:37.884Z,8.56
2023-12-24T17:48:43.568Z,8.50
2023-12-24T18:03:49.610Z,8.44
2023-12-24T18:18:55.659Z,8.44
2023-12-24T18:34:01.319Z,8.31
2023-12-24T18:49:06.860Z,8.44
